Jrs Merkur — V2FD8 — position and weather

sailwx.info

Track history (hours):
 
Tides and Currents Weather Stations Pressure Air Temp Water Temp Dewpoint Dewpoint Depression Visibility Wind Speed Wind Dir Waves Ship Positions

Jrs Merkur

Last reported at 2015-Feb-24 15:16 UTC. Time now 2015-Mar-01 03:03 UTC.
Position N 35°56' W 005°11'.

Length 107 m; draft 9.2 m.

Type: Cargo ship. MMSI: 305644000.

Date/timePositionNaut miles runAvg speedWind from/ knotsBaromVisibWave heightAir tempDewpointWater temp
2015-Feb-24 15:16N 35°56' W 005°11'7 9.9
2015-Feb-24 14:34N 35°54' W 005°19'0 0.4
2015-Feb-24 13:33N 35°54' W 005°19'0 0.0
2015-Feb-24 12:33N 35°54' W 005°19'0 0.0
2015-Feb-24 11:33N 35°54' W 005°19'0 0.0
2015-Feb-24 10:33N 35°54' W 005°19'0 0.1
2015-Feb-24 09:33N 35°54' W 005°19'2 2.2
2015-Feb-24 08:33N 35°56' W 005°18'1 0.6
2015-Feb-24 07:34N 35°56' W 005°18'8 8.2
2015-Feb-24 06:33N 35°57' W 005°28'  
2015-Feb-18 01:18N 50°22' W 000°50'911.2
2015-Feb-18 00:31N 50°25' W 000°36'35 8.7
2015-Feb-17 20:31N 50°34' E 000°16'6 6.6
2015-Feb-17 19:33N 50°36' E 000°26'16 8.0
2015-Feb-17 17:33N 50°44' E 000°47'1110.3
2015-Feb-17 16:31N 50°50' E 001°01'1010.6
2015-Feb-17 15:33N 50°57' E 001°14'1010.0
2015-Feb-17 14:33N 51°03' E 001°26'8 8.3
2015-Feb-17 13:33N 51°09' E 001°36'7 7.1
2015-Feb-17 12:33N 51°13' E 001°44'7 6.7
2015-Feb-17 11:33N 51°19' E 001°49'7 7.0
2015-Feb-17 10:33N 51°26' E 001°54'8 8.2
2015-Feb-17 09:33N 51°31' E 002°03'9 9.3
2015-Feb-17 08:33N 51°38' E 002°13'137 8.6
2015-Feb-16 16:32N 53°25' E 004°35'7 6.7
2015-Feb-16 15:33N 53°30' E 004°43'7 6.9
2015-Feb-16 14:33N 53°32' E 004°54'7 7.1
2015-Feb-16 13:33N 53°35' E 005°05'8 8.0
2015-Feb-16 12:33N 53°37' E 005°18'9 9.1
2015-Feb-16 11:33N 53°40' E 005°32'10 9.7
2015-Feb-16 10:33N 53°44' E 005°48'61 8.8
2015-Feb-16 03:33N 54°00' E 007°28'9 9.4
2015-Feb-16 02:33N 54°02' E 007°44'1010.0
2015-Feb-16 01:33N 54°01' E 008°01'1110.8
2015-Feb-16 00:33N 53°60' E 008°19'1312.9
2015-Feb-15 23:33N 53°56' E 008°40'1010.1
2015-Feb-15 22:33N 53°51' E 008°54'9 8.9
2015-Feb-15 21:33N 53°54' E 009°09'2 1.6
2015-Feb-15 20:33N 53°55' E 009°11'7 6.9
2015-Feb-15 19:33N 54°00' E 009°18'7 6.9
2015-Feb-15 18:32N 54°07' E 009°20'6 5.9
2015-Feb-15 17:31N 54°11' E 009°28'4 3.8
2015-Feb-15 16:33N 54°12' E 009°34'6 5.8
2015-Feb-15 15:33N 54°17' E 009°39'6 6.0
2015-Feb-15 14:33N 54°21' E 009°46'4 4.2
2015-Feb-15 13:33N 54°21' E 009°54'6 5.7
2015-Feb-15 12:33N 54°22' E 010°03'2 1.8
2015-Feb-15 11:33N 54°22' E 010°06'1 0.5
2015-Feb-15 10:31N 54°22' E 010°07'0 0.0
2015-Feb-15 02:31N 54°22' E 010°07'0 0.0
2015-Feb-15 01:31N 54°22' E 010°07'0 0.0
2015-Feb-15 00:31N 54°22' E 010°07'0 0.0
2015-Feb-14 23:31N 54°22' E 010°07'0 0.0
2015-Feb-14 22:31N 54°22' E 010°07'0 0.0
2015-Feb-14 21:31N 54°22' E 010°07'0 0.0
2015-Feb-14 20:31N 54°22' E 010°07'0 0.0
2015-Feb-14 19:31N 54°22' E 010°07'0 0.0
2015-Feb-14 18:31N 54°22' E 010°07'0 0.0
2015-Feb-14 17:28N 54°22' E 010°07'  
Track history (hours):
 
Tides and Currents Weather Stations Pressure Air Temp Water Temp Dewpoint Dewpoint Depression Visibility Wind Speed Wind Dir Waves Ship Positions

Jrs Merkur

Last reported at 2015-Feb-24 15:16 UTC. Time now 2015-Mar-01 03:03 UTC.
Position N 35°56' W 005°11'.

Length 107 m; draft 9.2 m.

Type: Cargo ship. MMSI: 305644000.

Date/timePositionNaut miles runAvg speedWind from/ knotsBaromVisibWave heightAir tempDewpointWater temp
2015-Feb-24 15:16N 35°56' W 005°11'7 9.9
2015-Feb-24 14:34N 35°54' W 005°19'0 0.4
2015-Feb-24 13:33N 35°54' W 005°19'0 0.0
2015-Feb-24 12:33N 35°54' W 005°19'0 0.0
2015-Feb-24 11:33N 35°54' W 005°19'0 0.0
2015-Feb-24 10:33N 35°54' W 005°19'0 0.1
2015-Feb-24 09:33N 35°54' W 005°19'2 2.2
2015-Feb-24 08:33N 35°56' W 005°18'1 0.6
2015-Feb-24 07:34N 35°56' W 005°18'8 8.2
2015-Feb-24 06:33N 35°57' W 005°28'  
2015-Feb-18 01:18N 50°22' W 000°50'911.2
2015-Feb-18 00:31N 50°25' W 000°36'35 8.7
2015-Feb-17 20:31N 50°34' E 000°16'6 6.6
2015-Feb-17 19:33N 50°36' E 000°26'16 8.0
2015-Feb-17 17:33N 50°44' E 000°47'1110.3
2015-Feb-17 16:31N 50°50' E 001°01'1010.6
2015-Feb-17 15:33N 50°57' E 001°14'1010.0
2015-Feb-17 14:33N 51°03' E 001°26'8 8.3
2015-Feb-17 13:33N 51°09' E 001°36'7 7.1
2015-Feb-17 12:33N 51°13' E 001°44'7 6.7
2015-Feb-17 11:33N 51°19' E 001°49'7 7.0
2015-Feb-17 10:33N 51°26' E 001°54'8 8.2
2015-Feb-17 09:33N 51°31' E 002°03'9 9.3
2015-Feb-17 08:33N 51°38' E 002°13'137 8.6
2015-Feb-16 16:32N 53°25' E 004°35'7 6.7
2015-Feb-16 15:33N 53°30' E 004°43'7 6.9
2015-Feb-16 14:33N 53°32' E 004°54'7 7.1
2015-Feb-16 13:33N 53°35' E 005°05'8 8.0
2015-Feb-16 12:33N 53°37' E 005°18'9 9.1
2015-Feb-16 11:33N 53°40' E 005°32'10 9.7
2015-Feb-16 10:33N 53°44' E 005°48'61 8.8
2015-Feb-16 03:33N 54°00' E 007°28'9 9.4
2015-Feb-16 02:33N 54°02' E 007°44'1010.0
2015-Feb-16 01:33N 54°01' E 008°01'1110.8
2015-Feb-16 00:33N 53°60' E 008°19'1312.9
2015-Feb-15 23:33N 53°56' E 008°40'1010.1
2015-Feb-15 22:33N 53°51' E 008°54'9 8.9
2015-Feb-15 21:33N 53°54' E 009°09'2 1.6
2015-Feb-15 20:33N 53°55' E 009°11'7 6.9
2015-Feb-15 19:33N 54°00' E 009°18'7 6.9
2015-Feb-15 18:32N 54°07' E 009°20'6 5.9
2015-Feb-15 17:31N 54°11' E 009°28'4 3.8
2015-Feb-15 16:33N 54°12' E 009°34'6 5.8
2015-Feb-15 15:33N 54°17' E 009°39'6 6.0
2015-Feb-15 14:33N 54°21' E 009°46'4 4.2
2015-Feb-15 13:33N 54°21' E 009°54'6 5.7
2015-Feb-15 12:33N 54°22' E 010°03'2 1.8
2015-Feb-15 11:33N 54°22' E 010°06'1 0.5
2015-Feb-15 10:31N 54°22' E 010°07'0 0.0
2015-Feb-15 02:31N 54°22' E 010°07'0 0.0
2015-Feb-15 01:31N 54°22' E 010°07'0 0.0
2015-Feb-15 00:31N 54°22' E 010°07'0 0.0
2015-Feb-14 23:31N 54°22' E 010°07'0 0.0
2015-Feb-14 22:31N 54°22' E 010°07'0 0.0
2015-Feb-14 21:31N 54°22' E 010°07'0 0.0
2015-Feb-14 20:31N 54°22' E 010°07'0 0.0
2015-Feb-14 19:31N 54°22' E 010°07'0 0.0
2015-Feb-14 18:31N 54°22' E 010°07'0 0.0
2015-Feb-14 17:28N 54°22' E 010°07'  

Dump ship's entire track history